עמוד ראשי
METAR-TAF:

METAR-TAF

שדות תעופה :

Las Vegas, ניו מקסיקו, ארצות הברית

קו רוחב: 35-39-15N, קו אורך: 105-08-33W, גובה: 2096מטר

תצפית מזג אוויר נוכחית

הדו"ח נערך לפני 37דקות, בשעה 12:53 UTC
רוח 4קשר מכיוון צפון
טמפרטורת 13 צלסיוס
לחות 72%
לחץ 1032 hPa
ראות: 16.1קילומטר
שמיים נקיים

METAR: KLVS 251253Z AUTO 01004KT 10SM CLR 13/08 A3047 RMK AO2 SLP212 T01330083

זמן: 07:30 (13:30 UTC)

תחזית

הדו"ח נערך לפני 2 שעות ו 9דקות, בשעה 11:21 UTC
תחזית בתוקף מ 25 ב 12 UTC עד 26 ב 12 UTC
רוח 5קשר מכיוון צפון/צפון-מזרח
ראות: 10קילומטר
שמיים נקיים
מ 25 ב 1600UTC
רוח 9קשר מכיוון מזרח/דרום-מזרח
ראות: 10קילומטר
מעט עננים בגובה 10000רגל
מ 25 ב 2000UTC
רוח 11קשר מכיוון דרום/דרום-מזרח
ראות: 10קילומטר
עננים פזורים בגובה 10000רגל
ממטרים במרחב
מ 26 ב 0100UTC
רוח 9קשר מכיוון דרום
ראות: 10קילומטר
מעט עננים בגובה 10000רגל

TAF: KLVS 251121Z 2512/2612 03005KT P6SM SKC FM251600 12009KT P6SM FEW100 FM252000 16011KT P6SM VCSH SCT100 FM260100 18009KT P6SM FEW100

תצפיות ותחזיות מזג אוויר לגבי יותר מ- 4,000 שדות תעופה ברחבי העולם. דוחות METAR ו- TAF.

התחנות הזמינות מסומנות בנקודות צהובות ואדומות על גבי המפה.

העבר את העכבר לנקודה הצבעונית על מנת לראות את שם התחנה.

לאחר מכן, לחץ כדי לראות את תוכן ואת תחזיות מזג האוויר.

כדי לשנות את המפה: לחץ על הכפתורים הירוקים עם הפלוס השחור כדי להתקרב; על הכפתור הירוק עם המקף כדי להתרחק; או בחיצים הירוקים למפות סמוכות.


METAR-TAF: